Minchinhampton, United Kingdom
Current Conditions -  °F | °C
As of 2:20 PM on Thursday 29 Jan 2015 (Local Time) from EGBJ Reporting Station
Rain Showers Rain Showers  
Wind Chill: -1°   Ceiling: Unl
Heat Index:   Visibility: 6mi
Dew Point:   Wind: 9mph
Humidity: 93%   Direction: 270°W
Pressure: 28.91"   Gusts: NA
Location:  51.71°N, 2.19°W
Report Text: EGBJ 291420Z 27008KT 9999 VCSH FEW008 SCT012 03/02 Q0979
Loading
Personal Weather Stations






























Interactive Weather Map New forecast layout! Learn more

10-Day Weather Forecast

Advertisements
Track Severe Weather on mobile